createdAt,value
2022-10-20T00:01:55.022Z,21.20
2022-10-20T00:04:22.735Z,21.20
2022-10-20T00:06:50.801Z,21.20
2022-10-20T00:09:18.485Z,21.20
2022-10-20T00:11:46.396Z,21.20
2022-10-20T00:14:14.119Z,21.20
2022-10-20T00:16:41.782Z,21.20
2022-10-20T00:19:09.509Z,21.20
2022-10-20T00:21:37.172Z,21.20
2022-10-20T00:24:04.831Z,21.20
2022-10-20T00:26:32.624Z,21.20
2022-10-20T00:29:00.371Z,21.20
2022-10-20T00:31:28.045Z,21.10
2022-10-20T00:33:55.758Z,21.10
2022-10-20T00:36:23.540Z,21.20
2022-10-20T00:38:51.216Z,21.20
2022-10-20T00:41:18.922Z,21.10
2022-10-20T00:43:46.607Z,21.10
2022-10-20T00:46:14.364Z,21.10
2022-10-20T00:48:42.050Z,21.10
2022-10-20T00:51:09.770Z,21.10
2022-10-20T00:53:37.411Z,21.10
2022-10-20T00:56:05.106Z,21.10
2022-10-20T00:58:32.766Z,21.10
2022-10-20T01:01:00.414Z,21.10
2022-10-20T01:03:28.117Z,21.10
2022-10-20T01:05:55.994Z,21.10
2022-10-20T01:08:23.663Z,21.10
2022-10-20T01:10:51.437Z,21.00
2022-10-20T01:13:19.104Z,21.10
2022-10-20T01:15:46.786Z,21.10
2022-10-20T01:18:14.578Z,21.10
2022-10-20T01:20:42.635Z,21.00
2022-10-20T01:23:10.320Z,21.10
2022-10-20T01:25:38.080Z,21.00
2022-10-20T01:28:05.766Z,21.00
2022-10-20T01:30:33.610Z,21.00
2022-10-20T01:33:01.293Z,21.10
2022-10-20T01:35:29.002Z,21.10
2022-10-20T01:37:57.084Z,21.00
2022-10-20T01:40:24.785Z,21.00
2022-10-20T01:42:52.524Z,21.00
2022-10-20T01:45:24.076Z,21.00
2022-10-20T01:47:51.889Z,21.00
2022-10-20T01:50:19.589Z,21.00
2022-10-20T01:52:47.236Z,21.00
2022-10-20T01:55:14.958Z,21.00
2022-10-20T01:57:42.653Z,21.00
2022-10-20T02:00:10.506Z,21.00
2022-10-20T02:02:38.461Z,21.00
2022-10-20T02:05:06.412Z,21.00
2022-10-20T02:07:34.134Z,21.00
2022-10-20T02:10:01.801Z,21.00
2022-10-20T02:12:29.517Z,21.00
2022-10-20T02:14:57.338Z,21.00
2022-10-20T02:17:25.047Z,21.00
2022-10-20T02:19:52.752Z,21.00
2022-10-20T02:22:20.376Z,20.90
2022-10-20T02:24:48.014Z,20.90
2022-10-20T02:27:15.966Z,21.00
2022-10-20T02:29:43.638Z,20.90
2022-10-20T02:32:11.329Z,20.90
2022-10-20T02:34:42.293Z,20.90
2022-10-20T02:37:10.434Z,20.90
2022-10-20T02:39:38.256Z,20.90
2022-10-20T02:42:06.000Z,20.90
2022-10-20T02:44:33.653Z,20.90
2022-10-20T02:47:01.302Z,20.90
2022-10-20T02:49:28.973Z,20.90
2022-10-20T02:51:56.649Z,21.00
2022-10-20T02:54:24.314Z,20.90
2022-10-20T02:56:52.006Z,20.90
2022-10-20T02:59:19.804Z,20.90
2022-10-20T03:01:47.562Z,20.90
2022-10-20T03:04:15.347Z,20.90
2022-10-20T03:06:43.079Z,20.90
2022-10-20T03:09:10.760Z,20.90
2022-10-20T03:11:38.510Z,20.90
2022-10-20T03:14:06.609Z,20.90
2022-10-20T03:16:34.338Z,20.90
2022-10-20T03:19:05.218Z,20.90
2022-10-20T03:21:34.302Z,20.90
2022-10-20T03:24:02.024Z,20.90
2022-10-20T03:26:29.751Z,20.90
2022-10-20T03:28:57.485Z,20.90
2022-10-20T03:31:25.244Z,20.90
2022-10-20T03:33:52.959Z,20.90
2022-10-20T03:36:20.671Z,20.90
2022-10-20T03:38:48.436Z,20.90
2022-10-20T03:41:16.204Z,21.00
2022-10-20T03:43:43.893Z,20.90
2022-10-20T03:46:11.638Z,20.90
2022-10-20T03:48:39.757Z,20.90
2022-10-20T03:51:07.558Z,20.90
2022-10-20T03:53:35.592Z,20.90
2022-10-20T03:56:03.316Z,20.90
2022-10-20T03:58:31.179Z,20.90
2022-10-20T04:00:59.054Z,20.90
2022-10-20T04:03:27.270Z,20.90
2022-10-20T04:05:55.186Z,20.90
2022-10-20T04:08:22.984Z,20.90
2022-10-20T04:10:50.788Z,20.90
2022-10-20T04:13:21.058Z,20.90
2022-10-20T04:15:48.905Z,20.90
2022-10-20T04:18:16.859Z,20.90
2022-10-20T04:20:44.861Z,20.90
2022-10-20T04:23:12.719Z,20.90
2022-10-20T04:25:40.918Z,20.90
2022-10-20T04:28:08.956Z,20.90
2022-10-20T04:30:36.732Z,20.90
2022-10-20T04:33:04.532Z,20.90
2022-10-20T04:35:32.273Z,20.90
2022-10-20T04:38:00.014Z,20.90
2022-10-20T04:40:28.074Z,20.90
2022-10-20T04:42:55.813Z,20.90
2022-10-20T04:45:23.549Z,20.90
2022-10-20T04:47:51.453Z,20.90
2022-10-20T04:50:19.364Z,20.90
2022-10-20T04:52:47.288Z,20.90
2022-10-20T04:55:15.029Z,20.90
2022-10-20T04:57:42.753Z,20.90
2022-10-20T05:00:10.544Z,20.90
2022-10-20T05:02:38.263Z,20.90
2022-10-20T05:05:06.104Z,20.90
2022-10-20T05:07:34.089Z,20.90
2022-10-20T05:10:04.193Z,20.90
2022-10-20T05:12:31.979Z,20.90
2022-10-20T05:14:59.716Z,20.90
2022-10-20T05:17:27.454Z,20.90
2022-10-20T05:19:55.322Z,20.90
2022-10-20T05:22:23.228Z,20.90
2022-10-20T05:24:51.110Z,20.90
2022-10-20T05:27:19.282Z,20.90
2022-10-20T05:29:47.035Z,20.90
2022-10-20T05:32:14.857Z,20.90
2022-10-20T05:34:43.931Z,20.90
2022-10-20T05:37:11.768Z,20.90
2022-10-20T05:39:39.808Z,20.90
2022-10-20T05:42:07.629Z,20.90
2022-10-20T05:44:35.315Z,20.90
2022-10-20T05:47:04.227Z,20.90
2022-10-20T05:49:31.964Z,20.90
2022-10-20T05:51:59.980Z,20.90
2022-10-20T05:54:27.709Z,20.90
2022-10-20T05:56:55.416Z,20.80
2022-10-20T05:59:23.101Z,20.80
2022-10-20T06:01:50.879Z,20.90
2022-10-20T06:04:18.623Z,20.90
2022-10-20T06:06:47.364Z,20.90
2022-10-20T06:09:15.164Z,20.90
2022-10-20T06:11:42.943Z,20.90
2022-10-20T06:14:10.828Z,20.90
2022-10-20T06:16:38.647Z,20.90
2022-10-20T06:19:07.318Z,20.90
2022-10-20T06:21:35.200Z,20.90
2022-10-20T06:24:04.249Z,20.90
2022-10-20T06:26:32.915Z,20.90
2022-10-20T06:29:04.343Z,20.90
2022-10-20T06:31:32.674Z,20.90
2022-10-20T06:34:00.627Z,20.80
2022-10-20T06:36:28.370Z,20.80
2022-10-20T06:38:56.092Z,20.90
2022-10-20T06:41:23.824Z,20.80
2022-10-20T06:43:55.149Z,20.80
2022-10-20T06:46:23.028Z,20.90
2022-10-20T06:48:53.005Z,20.90
2022-10-20T06:51:23.153Z,20.90
2022-10-20T06:53:50.875Z,20.80
2022-10-20T06:56:18.619Z,20.90
2022-10-20T06:58:46.384Z,20.90
2022-10-20T07:01:14.718Z,20.90
2022-10-20T07:03:42.470Z,20.90
2022-10-20T07:06:10.178Z,20.80
2022-10-20T07:08:38.371Z,20.90
2022-10-20T07:11:06.324Z,20.90
2022-10-20T07:13:34.198Z,20.90
2022-10-20T07:16:01.995Z,20.80
2022-10-20T07:18:29.926Z,20.90
2022-10-20T07:20:57.738Z,20.90
2022-10-20T07:23:25.679Z,20.90
2022-10-20T07:25:53.629Z,20.90
2022-10-20T07:28:22.004Z,20.90
2022-10-20T07:30:50.007Z,20.90
2022-10-20T07:33:17.870Z,20.80
2022-10-20T07:35:45.671Z,20.90
2022-10-20T07:38:13.430Z,20.80
2022-10-20T07:40:41.172Z,20.90
2022-10-20T07:43:08.889Z,20.80
2022-10-20T07:45:36.654Z,20.80
2022-10-20T07:48:04.457Z,20.80
2022-10-20T07:50:32.449Z,20.80
2022-10-20T07:53:00.210Z,20.80
2022-10-20T07:55:43.003Z,20.80
2022-10-20T07:58:10.833Z,20.80
2022-10-20T08:03:11.239Z,20.80
2022-10-20T08:05:38.967Z,20.80
2022-10-20T08:08:06.694Z,20.80
2022-10-20T08:10:34.473Z,20.90
2022-10-20T08:13:02.284Z,20.90
2022-10-20T08:15:30.173Z,20.80
2022-10-20T08:17:57.921Z,20.90
2022-10-20T08:20:28.641Z,20.80
2022-10-20T08:22:56.422Z,20.90
2022-10-20T08:25:24.188Z,20.90
2022-10-20T08:27:51.975Z,20.80
2022-10-20T08:30:23.976Z,20.90
2022-10-20T08:32:52.172Z,20.80
2022-10-20T08:35:22.273Z,20.90
2022-10-20T08:37:50.046Z,20.90
2022-10-20T08:40:23.803Z,20.90
2022-10-20T08:42:51.616Z,20.90
2022-10-20T08:45:19.313Z,20.90
2022-10-20T08:47:46.987Z,20.90
2022-10-20T08:50:16.493Z,20.80
2022-10-20T08:52:44.208Z,20.80
2022-10-20T08:55:11.967Z,20.80
2022-10-20T08:57:39.949Z,20.80
2022-10-20T09:00:09.065Z,20.90
2022-10-20T09:02:37.118Z,20.80
2022-10-20T09:05:05.041Z,20.80
2022-10-20T09:07:33.229Z,20.80
2022-10-20T09:10:03.413Z,20.80
2022-10-20T09:12:31.277Z,20.80
2022-10-20T09:14:59.025Z,20.80
2022-10-20T09:17:26.713Z,20.80
2022-10-20T09:19:54.390Z,20.80
2022-10-20T09:22:22.996Z,20.80
2022-10-20T09:24:50.723Z,20.80
2022-10-20T09:27:18.482Z,20.80
2022-10-20T09:29:46.496Z,20.80
2022-10-20T09:32:44.436Z,20.80
2022-10-20T09:35:01.857Z,20.80
2022-10-20T09:37:29.709Z,20.80
2022-10-20T09:39:57.380Z,20.80
2022-10-20T09:42:25.135Z,20.80
2022-10-20T09:44:52.835Z,20.80
2022-10-20T09:47:20.489Z,20.80
2022-10-20T09:49:48.232Z,20.80
2022-10-20T09:52:15.936Z,20.80
2022-10-20T09:54:43.649Z,20.80
2022-10-20T09:57:11.348Z,20.80
2022-10-20T09:59:39.028Z,20.80
2022-10-20T10:02:06.812Z,20.80
2022-10-20T10:04:34.471Z,20.80
2022-10-20T10:07:02.202Z,20.80
2022-10-20T10:09:31.201Z,20.80
2022-10-20T10:11:58.967Z,20.80
2022-10-20T10:14:26.670Z,20.80
2022-10-20T10:16:54.374Z,20.80
2022-10-20T10:19:22.045Z,20.80
2022-10-20T10:21:49.742Z,20.80
2022-10-20T10:24:19.852Z,20.80
2022-10-20T10:26:47.536Z,20.80
2022-10-20T10:29:15.252Z,20.80
2022-10-20T10:31:42.990Z,20.80
2022-10-20T10:34:10.687Z,20.80
2022-10-20T10:36:38.423Z,20.80
2022-10-20T10:39:06.181Z,20.80
2022-10-20T10:41:34.276Z,20.80
2022-10-20T10:44:01.952Z,20.80
2022-10-20T10:46:29.673Z,20.80
2022-10-20T10:48:57.342Z,20.80
2022-10-20T10:51:25.005Z,20.80
2022-10-20T10:53:52.674Z,20.80
2022-10-20T10:56:20.385Z,20.80
2022-10-20T10:58:48.083Z,20.80
2022-10-20T11:01:15.780Z,20.80
2022-10-20T11:03:43.498Z,20.80
2022-10-20T11:06:11.195Z,20.80
2022-10-20T11:08:38.928Z,20.80
2022-10-20T11:11:06.666Z,20.90
2022-10-20T11:13:34.371Z,20.90
2022-10-20T11:16:02.049Z,20.80
2022-10-20T11:18:29.742Z,20.80
2022-10-20T11:20:57.437Z,20.80
2022-10-20T11:23:25.104Z,20.80
2022-10-20T11:25:52.783Z,20.80
2022-10-20T11:28:20.469Z,20.90
2022-10-20T11:30:48.143Z,20.90
2022-10-20T11:33:15.867Z,20.90
2022-10-20T11:35:43.648Z,20.80
2022-10-20T11:38:11.381Z,20.90
2022-10-20T11:40:39.066Z,20.80
2022-10-20T11:43:08.903Z,20.90
2022-10-20T11:45:38.700Z,20.80
2022-10-20T11:48:06.334Z,20.90
2022-10-20T11:50:34.010Z,20.90
2022-10-20T11:53:01.712Z,20.90
2022-10-20T11:55:29.482Z,20.80
2022-10-20T11:57:59.008Z,20.80
2022-10-20T12:00:28.774Z,20.90
2022-10-20T12:02:56.478Z,20.90
2022-10-20T12:05:24.188Z,20.80
2022-10-20T12:08:00.800Z,20.90
2022-10-20T12:10:38.966Z,20.90
2022-10-20T12:13:06.613Z,20.90
2022-10-20T12:15:34.338Z,20.90
2022-10-20T12:18:02.004Z,20.80
2022-10-20T12:20:29.664Z,20.90
2022-10-20T12:22:59.086Z,20.80
2022-10-20T12:25:26.768Z,20.90
2022-10-20T12:27:54.554Z,20.80
2022-10-20T12:30:22.368Z,20.90
2022-10-20T12:32:52.451Z,20.90
2022-10-20T12:35:20.110Z,20.90
2022-10-20T12:37:48.126Z,20.80
2022-10-20T12:40:16.191Z,20.90
2022-10-20T12:42:43.946Z,20.90
2022-10-20T12:45:11.672Z,20.80
2022-10-20T12:47:39.622Z,20.80
2022-10-20T12:50:07.903Z,20.90
2022-10-20T12:52:35.577Z,20.80
2022-10-20T12:55:03.320Z,20.90
2022-10-20T12:57:30.973Z,20.80
2022-10-20T12:59:58.603Z,20.90
2022-10-20T13:02:28.364Z,20.90
2022-10-20T13:04:56.246Z,20.80
2022-10-20T13:07:24.003Z,20.90
2022-10-20T13:09:54.624Z,20.90
2022-10-20T13:12:22.412Z,20.90
2022-10-20T13:14:50.584Z,20.90
2022-10-20T13:17:18.338Z,20.90
2022-10-20T13:19:46.020Z,20.90
2022-10-20T13:22:13.670Z,20.90
2022-10-20T13:24:44.791Z,20.90
2022-10-20T13:27:12.861Z,20.90
2022-10-20T13:29:40.549Z,20.90
2022-10-20T13:34:41.032Z,20.90
2022-10-20T13:37:08.696Z,20.90
2022-10-20T13:39:36.755Z,20.90
2022-10-20T13:42:04.436Z,20.90
2022-10-20T13:44:32.095Z,20.90
2022-10-20T13:46:59.730Z,20.90
2022-10-20T13:49:27.398Z,21.00
2022-10-20T13:51:55.096Z,22.30
2022-10-20T13:54:22.809Z,24.90
2022-10-20T13:56:50.497Z,27.50
2022-10-20T13:59:18.576Z,29.70
2022-10-20T14:01:46.330Z,31.40
2022-10-20T14:04:14.025Z,32.50
2022-10-20T14:06:41.735Z,33.30
2022-10-20T14:09:09.429Z,33.60
2022-10-20T14:11:37.153Z,33.70
2022-10-20T14:14:04.809Z,33.60
2022-10-20T14:16:32.530Z,33.30
2022-10-20T14:19:00.198Z,32.90
2022-10-20T14:21:30.171Z,32.40
2022-10-20T14:23:57.866Z,31.90
2022-10-20T14:26:25.510Z,31.40
2022-10-20T14:28:53.253Z,30.90
2022-10-20T14:31:21.001Z,30.40
2022-10-20T14:33:48.655Z,30.00
2022-10-20T14:36:16.362Z,29.50
2022-10-20T14:38:44.090Z,29.10
2022-10-20T14:41:11.751Z,28.60
2022-10-20T14:43:40.179Z,28.20
2022-10-20T14:46:07.912Z,27.80
2022-10-20T14:48:35.607Z,27.50
2022-10-20T14:51:03.277Z,27.10
2022-10-20T14:53:30.955Z,26.80
2022-10-20T14:56:00.073Z,26.50
2022-10-20T14:58:27.777Z,26.20
2022-10-20T15:00:55.463Z,25.90
2022-10-20T15:03:23.206Z,25.70
2022-10-20T15:05:50.902Z,25.40
2022-10-20T15:08:18.618Z,25.20
2022-10-20T15:10:46.540Z,25.00
2022-10-20T15:13:14.279Z,24.80
2022-10-20T15:15:41.971Z,24.60
2022-10-20T15:18:09.711Z,24.40
2022-10-20T15:20:37.527Z,24.30
2022-10-20T15:23:05.223Z,24.20
2022-10-20T15:25:33.113Z,24.10
2022-10-20T15:28:00.773Z,24.00
2022-10-20T15:30:28.411Z,24.00
2022-10-20T15:32:56.107Z,23.90
2022-10-20T15:35:24.360Z,23.80
2022-10-20T15:37:52.025Z,23.70
2022-10-20T15:40:19.703Z,23.60
2022-10-20T15:42:47.381Z,23.50
2022-10-20T15:45:15.054Z,23.40
2022-10-20T15:47:42.848Z,23.30
2022-10-20T15:50:10.547Z,23.30
2022-10-20T15:52:39.582Z,23.10
2022-10-20T15:55:07.675Z,23.10
2022-10-20T15:57:35.590Z,23.10
2022-10-20T16:00:03.517Z,23.00
2022-10-20T16:02:31.430Z,22.90
2022-10-20T16:04:59.185Z,22.90
2022-10-20T16:07:26.867Z,22.80
2022-10-20T16:09:54.831Z,22.70
2022-10-20T16:12:22.720Z,22.70
2022-10-20T16:14:50.403Z,22.60
2022-10-20T16:17:18.209Z,22.60
2022-10-20T16:19:45.853Z,22.60
2022-10-20T16:22:13.529Z,22.50
2022-10-20T16:24:41.501Z,22.40
2022-10-20T16:27:09.113Z,22.40
2022-10-20T16:29:36.778Z,22.40
2022-10-20T16:32:04.636Z,22.40
2022-10-20T16:34:32.387Z,22.30
2022-10-20T16:37:00.164Z,22.20
2022-10-20T16:39:28.105Z,22.20
2022-10-20T16:41:55.773Z,22.20
2022-10-20T16:44:23.509Z,22.20
2022-10-20T16:46:51.450Z,22.10
2022-10-20T16:49:19.123Z,22.10
2022-10-20T16:51:46.843Z,22.10
2022-10-20T16:54:14.667Z,22.10
2022-10-20T16:56:42.371Z,22.00
2022-10-20T16:59:10.407Z,22.00
2022-10-20T17:01:38.146Z,22.00
2022-10-20T17:04:05.983Z,22.00
2022-10-20T17:06:33.752Z,21.90
2022-10-20T17:09:01.549Z,21.90
2022-10-20T17:11:29.323Z,21.90
2022-10-20T17:13:57.273Z,21.90
2022-10-20T17:16:27.820Z,21.90
2022-10-20T17:18:56.475Z,21.90
2022-10-20T17:21:24.261Z,21.90
2022-10-20T17:23:52.140Z,21.80
2022-10-20T17:26:19.841Z,21.80
2022-10-20T17:28:47.711Z,21.80
2022-10-20T17:33:43.081Z,21.80
2022-10-20T17:36:11.655Z,21.70
2022-10-20T17:38:39.342Z,21.70
2022-10-20T17:41:07.129Z,21.70
2022-10-20T17:43:35.163Z,21.70
2022-10-20T17:46:03.016Z,21.80
2022-10-20T17:48:30.885Z,22.00
2022-10-20T17:50:58.573Z,22.20
2022-10-20T17:53:26.244Z,22.30
2022-10-20T17:55:54.025Z,22.50
2022-10-20T17:58:21.659Z,22.60
2022-10-20T18:00:56.353Z,22.70
2022-10-20T18:03:24.771Z,22.80
2022-10-20T18:05:52.461Z,22.80
2022-10-20T18:08:20.381Z,22.90
2022-10-20T18:10:49.079Z,22.90
2022-10-20T18:13:16.750Z,23.00
2022-10-20T18:15:44.487Z,23.00
2022-10-20T18:18:12.347Z,23.00
2022-10-20T18:20:40.034Z,23.00
2022-10-20T18:23:07.802Z,23.00
2022-10-20T18:25:35.481Z,23.00
2022-10-20T18:28:03.282Z,22.90
2022-10-20T18:30:30.957Z,22.90
2022-10-20T18:32:58.615Z,22.80
2022-10-20T18:35:26.357Z,22.70
2022-10-20T18:37:57.791Z,22.60
2022-10-20T18:40:25.624Z,22.60
2022-10-20T18:42:53.291Z,22.50
2022-10-20T18:45:23.847Z,22.40
2022-10-20T18:47:53.816Z,22.40
2022-10-20T18:50:21.485Z,22.30
2022-10-20T18:52:49.278Z,22.30
2022-10-20T18:55:17.104Z,22.20
2022-10-20T18:57:44.798Z,22.20
2022-10-20T19:00:12.487Z,22.10
2022-10-20T19:02:40.248Z,22.10
2022-10-20T19:05:07.966Z,22.10
2022-10-20T19:07:35.993Z,22.00
2022-10-20T19:10:03.946Z,22.00
2022-10-20T19:12:31.755Z,22.00
2022-10-20T19:14:59.408Z,21.90
2022-10-20T19:17:27.258Z,21.90
2022-10-20T19:19:54.951Z,21.90
2022-10-20T19:22:26.948Z,21.80
2022-10-20T19:24:57.179Z,21.80
2022-10-20T19:27:27.145Z,21.70
2022-10-20T19:29:55.955Z,21.80
2022-10-20T19:32:23.664Z,21.70
2022-10-20T19:34:51.558Z,21.70
2022-10-20T19:37:19.227Z,21.70
2022-10-20T19:39:47.006Z,21.70
2022-10-20T19:42:14.729Z,21.70
2022-10-20T19:44:42.522Z,21.70
2022-10-20T19:47:10.404Z,21.60
2022-10-20T19:49:38.620Z,21.60
2022-10-20T19:52:06.457Z,21.60
2022-10-20T19:54:34.140Z,21.60
2022-10-20T19:57:01.825Z,21.60
2022-10-20T19:59:29.652Z,21.60
2022-10-20T20:01:57.298Z,21.60
2022-10-20T20:04:25.137Z,21.60
2022-10-20T20:06:52.783Z,21.60
2022-10-20T20:09:20.461Z,21.60
2022-10-20T20:11:48.115Z,21.50
2022-10-20T20:14:15.958Z,21.60
2022-10-20T20:19:18.009Z,21.60
2022-10-20T20:21:46.129Z,21.60
2022-10-20T20:24:14.293Z,21.50
2022-10-20T20:26:42.027Z,21.50
2022-10-20T20:29:09.716Z,21.50
2022-10-20T20:31:37.397Z,21.50
2022-10-20T20:34:05.126Z,21.50
2022-10-20T20:36:32.892Z,21.50
2022-10-20T20:39:01.234Z,21.50
2022-10-20T20:41:30.124Z,21.50
2022-10-20T20:43:58.028Z,21.50
2022-10-20T20:46:26.837Z,21.50
2022-10-20T20:48:54.602Z,21.50
2022-10-20T20:51:22.250Z,21.50
2022-10-20T20:53:49.892Z,21.40
2022-10-20T20:56:19.599Z,21.50
2022-10-20T20:58:50.374Z,21.40
2022-10-20T21:01:18.472Z,21.40
2022-10-20T21:03:46.346Z,21.40
2022-10-20T21:06:14.162Z,21.40
2022-10-20T21:08:41.917Z,21.40
2022-10-20T21:11:09.746Z,21.40
2022-10-20T21:13:37.751Z,21.40
2022-10-20T21:16:05.515Z,21.40
2022-10-20T21:18:38.662Z,21.40
2022-10-20T21:21:06.394Z,21.30
2022-10-20T21:23:36.248Z,21.30
2022-10-20T21:26:04.172Z,21.30
2022-10-20T21:28:31.940Z,21.30
2022-10-20T21:31:00.989Z,21.30
2022-10-20T21:33:28.883Z,21.30
2022-10-20T21:35:56.550Z,21.30
2022-10-20T21:38:28.617Z,21.30
2022-10-20T21:40:57.063Z,21.30
2022-10-20T21:43:27.606Z,21.30
2022-10-20T21:45:55.269Z,21.30
2022-10-20T21:48:23.015Z,21.30
2022-10-20T21:50:50.795Z,21.30
2022-10-20T21:53:23.360Z,21.30
2022-10-20T21:55:51.040Z,21.30
2022-10-20T21:58:18.739Z,21.30
2022-10-20T22:00:46.494Z,21.30
2022-10-20T22:03:14.351Z,21.30
2022-10-20T22:05:42.018Z,21.30
2022-10-20T22:08:09.699Z,21.30
2022-10-20T22:10:37.338Z,21.30
2022-10-20T22:13:05.019Z,21.30
2022-10-20T22:15:32.704Z,21.30
2022-10-20T22:18:00.402Z,21.30
2022-10-20T22:20:28.127Z,21.30
2022-10-20T22:22:55.860Z,21.30
2022-10-20T22:25:23.826Z,21.30
2022-10-20T22:27:51.480Z,21.30
2022-10-20T22:30:19.110Z,21.30
2022-10-20T22:32:46.763Z,21.30
2022-10-20T22:35:17.225Z,21.30
2022-10-20T22:37:44.896Z,21.30
2022-10-20T22:40:12.533Z,21.30
2022-10-20T22:42:40.717Z,21.30
2022-10-20T22:45:08.528Z,21.30
2022-10-20T22:47:36.248Z,21.30
2022-10-20T22:50:03.919Z,21.30
2022-10-20T22:52:31.600Z,21.30
2022-10-20T22:54:59.306Z,21.30
2022-10-20T22:57:26.953Z,21.30
2022-10-20T22:59:54.605Z,21.20
2022-10-20T23:02:22.273Z,21.20
2022-10-20T23:04:49.938Z,21.20
2022-10-20T23:07:17.770Z,21.20
2022-10-20T23:09:45.447Z,21.20
2022-10-20T23:12:13.138Z,21.20
2022-10-20T23:14:40.824Z,21.20
2022-10-20T23:17:08.488Z,21.20
2022-10-20T23:19:38.487Z,21.20
2022-10-20T23:22:06.169Z,21.20
2022-10-20T23:24:36.211Z,21.20
2022-10-20T23:27:03.887Z,21.20
2022-10-20T23:29:33.924Z,21.20
2022-10-20T23:32:01.678Z,21.20
2022-10-20T23:34:29.596Z,21.20
2022-10-20T23:36:57.269Z,21.20
2022-10-20T23:39:27.282Z,21.20
2022-10-20T23:41:54.962Z,21.20
2022-10-20T23:44:22.793Z,21.20
2022-10-20T23:46:51.979Z,21.20
2022-10-20T23:49:21.216Z,21.20
2022-10-20T23:51:48.856Z,21.20
2022-10-20T23:54:16.516Z,21.20
2022-10-20T23:56:44.208Z,21.20
2022-10-20T23:59:11.885Z,21.20
